sensor_id;sensor_type;location;lat;lon;timestamp;pressure;altitude;pressure_sealevel;temperature;humidity
27210;BME280;14721;42.668;23.386;2022-11-20T00:01:21;94603.53;;;15.32;89.18
27210;BME280;14721;42.668;23.386;2022-11-20T00:03:50;94624.31;;;15.39;89.06
27210;BME280;14721;42.668;23.386;2022-11-20T00:06:19;94611.00;;;15.38;89.17
27210;BME280;14721;42.668;23.386;2022-11-20T00:08:46;94637.28;;;15.44;89.77
27210;BME280;14721;42.668;23.386;2022-11-20T00:11:18;94628.75;;;15.48;89.62
27210;BME280;14721;42.668;23.386;2022-11-20T00:13:46;94621.84;;;15.46;89.95
27210;BME280;14721;42.668;23.386;2022-11-20T00:16:16;94620.13;;;15.45;89.82
27210;BME280;14721;42.668;23.386;2022-11-20T00:18:44;94606.16;;;15.41;89.56
27210;BME280;14721;42.668;23.386;2022-11-20T00:21:24;94609.19;;;15.38;89.82
27210;BME280;14721;42.668;23.386;2022-11-20T00:23:54;94631.59;;;15.47;89.36
27210;BME280;14721;42.668;23.386;2022-11-20T00:26:21;94603.47;;;15.41;89.72
27210;BME280;14721;42.668;23.386;2022-11-20T00:28:56;94590.00;;;15.41;90.37
27210;BME280;14721;42.668;23.386;2022-11-20T00:31:23;94617.59;;;15.43;89.81
27210;BME280;14721;42.668;23.386;2022-11-20T00:33:49;94589.16;;;15.41;89.16
27210;BME280;14721;42.668;23.386;2022-11-20T00:36:20;94582.97;;;15.40;88.66
27210;BME280;14721;42.668;23.386;2022-11-20T00:38:46;94605.88;;;15.52;87.29
27210;BME280;14721;42.668;23.386;2022-11-20T00:41:15;94606.94;;;15.59;87.57
27210;BME280;14721;42.668;23.386;2022-11-20T00:43:41;94603.06;;;15.62;86.89
27210;BME280;14721;42.668;23.386;2022-11-20T00:46:10;94604.31;;;15.75;85.23
27210;BME280;14721;42.668;23.386;2022-11-20T00:48:38;94594.59;;;15.90;82.08
27210;BME280;14721;42.668;23.386;2022-11-20T00:51:04;94622.81;;;16.12;81.47
27210;BME280;14721;42.668;23.386;2022-11-20T00:53:31;94605.13;;;16.17;81.37
27210;BME280;14721;42.668;23.386;2022-11-20T00:58:24;94607.69;;;16.35;78.87
27210;BME280;14721;42.668;23.386;2022-11-20T01:00:50;94630.44;;;16.32;79.92
27210;BME280;14721;42.668;23.386;2022-11-20T01:03:38;94597.72;;;16.27;80.96
27210;BME280;14721;42.668;23.386;2022-11-20T01:06:11;94598.06;;;16.16;80.53
27210;BME280;14721;42.668;23.386;2022-11-20T01:08:37;94620.81;;;16.22;79.74
27210;BME280;14721;42.668;23.386;2022-11-20T01:11:09;94598.38;;;16.13;80.79
27210;BME280;14721;42.668;23.386;2022-11-20T01:13:36;94586.44;;;16.16;77.92
27210;BME280;14721;42.668;23.386;2022-11-20T01:16:10;94568.94;;;16.36;76.57
27210;BME280;14721;42.668;23.386;2022-11-20T01:18:37;94587.19;;;16.50;75.95
27210;BME280;14721;42.668;23.386;2022-11-20T01:21:10;94569.19;;;16.58;75.58
27210;BME280;14721;42.668;23.386;2022-11-20T01:23:40;94571.84;;;16.66;74.92
27210;BME280;14721;42.668;23.386;2022-11-20T01:26:10;94584.84;;;16.71;74.99
27210;BME280;14721;42.668;23.386;2022-11-20T01:28:36;94587.53;;;16.71;74.91
27210;BME280;14721;42.668;23.386;2022-11-20T01:31:02;94576.75;;;16.71;73.93
27210;BME280;14721;42.668;23.386;2022-11-20T01:33:36;94564.44;;;16.68;74.41
27210;BME280;14721;42.668;23.386;2022-11-20T01:36:05;94561.22;;;16.65;74.37
27210;BME280;14721;42.668;23.386;2022-11-20T01:38:31;94569.31;;;16.65;73.92
27210;BME280;14721;42.668;23.386;2022-11-20T01:40:57;94557.53;;;16.58;74.81
27210;BME280;14721;42.668;23.386;2022-11-20T01:43:24;94554.50;;;16.61;75.10
27210;BME280;14721;42.668;23.386;2022-11-20T01:46:15;94561.41;;;16.63;75.25
27210;BME280;14721;42.668;23.386;2022-11-20T01:48:48;94554.00;;;16.65;75.77
27210;BME280;14721;42.668;23.386;2022-11-20T01:51:25;94555.00;;;16.56;76.21
27210;BME280;14721;42.668;23.386;2022-11-20T01:53:54;94548.94;;;16.54;75.79
27210;BME280;14721;42.668;23.386;2022-11-20T01:56:23;94553.78;;;16.43;76.88
27210;BME280;14721;42.668;23.386;2022-11-20T01:58:56;94550.78;;;16.46;76.61
27210;BME280;14721;42.668;23.386;2022-11-20T02:01:23;94540.31;;;16.43;76.33
27210;BME280;14721;42.668;23.386;2022-11-20T02:03:50;94542.16;;;16.42;76.28
27210;BME280;14721;42.668;23.386;2022-11-20T02:09:20;94550.44;;;16.49;74.24
27210;BME280;14721;42.668;23.386;2022-11-20T02:11:46;94540.50;;;16.57;73.80
27210;BME280;14721;42.668;23.386;2022-11-20T02:14:12;94547.41;;;16.68;73.34
27210;BME280;14721;42.668;23.386;2022-11-20T02:16:41;94558.88;;;16.78;72.96
27210;BME280;14721;42.668;23.386;2022-11-20T02:19:32;94564.94;;;16.80;73.63
27210;BME280;14721;42.668;23.386;2022-11-20T02:22:07;94559.38;;;16.65;73.66
27210;BME280;14721;42.668;23.386;2022-11-20T02:24:36;94551.97;;;16.67;73.55
27210;BME280;14721;42.668;23.386;2022-11-20T02:27:09;94560.56;;;16.71;73.63
27210;BME280;14721;42.668;23.386;2022-11-20T02:29:51;94541.38;;;16.66;74.17
27210;BME280;14721;42.668;23.386;2022-11-20T02:32:28;94541.69;;;16.71;71.86
27210;BME280;14721;42.668;23.386;2022-11-20T02:34:54;94576.25;;;16.83;72.21
27210;BME280;14721;42.668;23.386;2022-11-20T02:37:20;94561.09;;;16.82;72.24
27210;BME280;14721;42.668;23.386;2022-11-20T02:39:49;94563.59;;;16.92;70.90
27210;BME280;14721;42.668;23.386;2022-11-20T02:42:15;94570.16;;;17.06;69.59
27210;BME280;14721;42.668;23.386;2022-11-20T02:44:41;94576.75;;;17.11;69.57
27210;BME280;14721;42.668;23.386;2022-11-20T02:47:07;94557.69;;;17.13;69.10
27210;BME280;14721;42.668;23.386;2022-11-20T02:49:34;94561.38;;;17.20;68.26
27210;BME280;14721;42.668;23.386;2022-11-20T02:52:01;94587.50;;;17.43;66.75
27210;BME280;14721;42.668;23.386;2022-11-20T02:54:27;94578.41;;;17.44;66.64
27210;BME280;14721;42.668;23.386;2022-11-20T02:56:53;94588.16;;;17.53;65.46
27210;BME280;14721;42.668;23.386;2022-11-20T02:59:18;94591.16;;;17.66;64.74
27210;BME280;14721;42.668;23.386;2022-11-20T03:01:44;94610.00;;;17.82;63.54
27210;BME280;14721;42.668;23.386;2022-11-20T03:04:10;94606.94;;;17.93;63.24
27210;BME280;14721;42.668;23.386;2022-11-20T03:06:36;94611.94;;;18.04;62.48
27210;BME280;14721;42.668;23.386;2022-11-20T03:09:02;94621.16;;;18.18;61.59
27210;BME280;14721;42.668;23.386;2022-11-20T03:11:28;94610.13;;;18.27;61.67
27210;BME280;14721;42.668;23.386;2022-11-20T03:13:54;94617.38;;;18.27;61.75
27210;BME280;14721;42.668;23.386;2022-11-20T03:16:22;94614.84;;;18.33;61.95
27210;BME280;14721;42.668;23.386;2022-11-20T03:18:48;94609.41;;;18.33;61.56
27210;BME280;14721;42.668;23.386;2022-11-20T03:21:15;94603.28;;;18.47;61.04
27210;BME280;14721;42.668;23.386;2022-11-20T03:23:43;94622.53;;;18.52;60.71
27210;BME280;14721;42.668;23.386;2022-11-20T03:28:37;94627.53;;;18.63;60.30
27210;BME280;14721;42.668;23.386;2022-11-20T03:31:11;94616.66;;;18.72;59.66
27210;BME280;14721;42.668;23.386;2022-11-20T03:33:38;94631.16;;;18.79;59.22
27210;BME280;14721;42.668;23.386;2022-11-20T03:36:07;94637.97;;;18.75;59.67
27210;BME280;14721;42.668;23.386;2022-11-20T03:38:33;94607.19;;;18.67;59.20
27210;BME280;14721;42.668;23.386;2022-11-20T03:41:04;94641.13;;;18.78;59.43
27210;BME280;14721;42.668;23.386;2022-11-20T03:43:30;94631.56;;;18.67;59.27
27210;BME280;14721;42.668;23.386;2022-11-20T03:45:56;94626.81;;;18.69;59.05
27210;BME280;14721;42.668;23.386;2022-11-20T03:48:22;94626.47;;;18.73;58.77
27210;BME280;14721;42.668;23.386;2022-11-20T03:50:48;94645.28;;;18.89;58.18
27210;BME280;14721;42.668;23.386;2022-11-20T03:53:15;94629.00;;;18.97;58.30
27210;BME280;14721;42.668;23.386;2022-11-20T03:55:41;94623.81;;;18.87;58.40
27210;BME280;14721;42.668;23.386;2022-11-20T03:58:08;94621.19;;;19.02;58.60
27210;BME280;14721;42.668;23.386;2022-11-20T04:00:34;94621.72;;;18.97;57.42
27210;BME280;14721;42.668;23.386;2022-11-20T04:03:01;94622.72;;;18.96;58.10
27210;BME280;14721;42.668;23.386;2022-11-20T04:05:27;94621.72;;;18.97;58.13
27210;BME280;14721;42.668;23.386;2022-11-20T04:07:53;94624.44;;;18.97;57.55
27210;BME280;14721;42.668;23.386;2022-11-20T04:10:19;94630.47;;;18.99;57.63
27210;BME280;14721;42.668;23.386;2022-11-20T04:12:45;94634.94;;;18.92;57.72
27210;BME280;14721;42.668;23.386;2022-11-20T04:15:11;94633.88;;;19.01;57.24
27210;BME280;14721;42.668;23.386;2022-11-20T04:17:37;94634.41;;;18.97;57.25
27210;BME280;14721;42.668;23.386;2022-11-20T04:20:03;94643.47;;;19.04;57.22
27210;BME280;14721;42.668;23.386;2022-11-20T04:22:29;94640.19;;;18.94;57.49
27210;BME280;14721;42.668;23.386;2022-11-20T04:24:54;94637.16;;;18.89;57.36
27210;BME280;14721;42.668;23.386;2022-11-20T04:27:20;94654.06;;;18.91;57.70
27210;BME280;14721;42.668;23.386;2022-11-20T04:29:46;94644.75;;;18.93;57.10
27210;BME280;14721;42.668;23.386;2022-11-20T04:32:12;94653.34;;;18.97;57.17
27210;BME280;14721;42.668;23.386;2022-11-20T04:34:37;94658.94;;;18.95;57.45
27210;BME280;14721;42.668;23.386;2022-11-20T04:37:03;94646.31;;;18.88;57.69
27210;BME280;14721;42.668;23.386;2022-11-20T04:39:30;94644.91;;;18.92;56.99
27210;BME280;14721;42.668;23.386;2022-11-20T04:41:56;94658.94;;;18.95;56.80
27210;BME280;14721;42.668;23.386;2022-11-20T04:44:40;94657.72;;;18.98;56.73
27210;BME280;14721;42.668;23.386;2022-11-20T04:47:06;94646.09;;;18.97;56.92
27210;BME280;14721;42.668;23.386;2022-11-20T04:49:32;94646.28;;;18.96;56.97
27210;BME280;14721;42.668;23.386;2022-11-20T04:52:00;94628.31;;;18.95;57.41
27210;BME280;14721;42.668;23.386;2022-11-20T04:54:26;94623.41;;;18.98;57.23
27210;BME280;14721;42.668;23.386;2022-11-20T04:56:52;94624.78;;;18.94;57.52
27210;BME280;14721;42.668;23.386;2022-11-20T04:59:18;94628.50;;;18.93;58.07
27210;BME280;14721;42.668;23.386;2022-11-20T05:01:44;94611.25;;;18.94;58.13
27210;BME280;14721;42.668;23.386;2022-11-20T05:04:11;94622.91;;;18.95;57.80
27210;BME280;14721;42.668;23.386;2022-11-20T05:06:38;94613.09;;;18.94;57.76
27210;BME280;14721;42.668;23.386;2022-11-20T05:09:03;94614.59;;;18.96;58.07
27210;BME280;14721;42.668;23.386;2022-11-20T05:11:29;94611.13;;;18.88;58.46
27210;BME280;14721;42.668;23.386;2022-11-20T05:13:55;94628.94;;;18.82;58.99
27210;BME280;14721;42.668;23.386;2022-11-20T05:16:24;94624.44;;;18.75;59.68
27210;BME280;14721;42.668;23.386;2022-11-20T05:18:52;94612.97;;;18.64;60.17
27210;BME280;14721;42.668;23.386;2022-11-20T05:21:19;94608.47;;;18.57;62.06
27210;BME280;14721;42.668;23.386;2022-11-20T05:23:45;94602.97;;;18.34;64.41
27210;BME280;14721;42.668;23.386;2022-11-20T05:26:16;94612.41;;;18.16;66.09
27210;BME280;14721;42.668;23.386;2022-11-20T05:28:43;94609.63;;;17.93;67.82
27210;BME280;14721;42.668;23.386;2022-11-20T05:31:23;94578.94;;;17.78;68.77
27210;BME280;14721;42.668;23.386;2022-11-20T05:33:49;94592.47;;;17.70;69.62
27210;BME280;14721;42.668;23.386;2022-11-20T05:36:16;94590.34;;;17.58;70.56
27210;BME280;14721;42.668;23.386;2022-11-20T05:38:42;94598.78;;;17.55;71.08
27210;BME280;14721;42.668;23.386;2022-11-20T05:41:11;94606.56;;;17.50;71.37
27210;BME280;14721;42.668;23.386;2022-11-20T05:43:38;94605.53;;;17.51;71.27
27210;BME280;14721;42.668;23.386;2022-11-20T05:46:05;94593.91;;;17.50;71.28
27210;BME280;14721;42.668;23.386;2022-11-20T05:48:32;94582.59;;;17.55;71.03
27210;BME280;14721;42.668;23.386;2022-11-20T05:50:59;94587.81;;;17.56;70.63
27210;BME280;14721;42.668;23.386;2022-11-20T05:53:25;94575.97;;;17.57;70.56
27210;BME280;14721;42.668;23.386;2022-11-20T05:56:06;94573.44;;;17.56;70.21
27210;BME280;14721;42.668;23.386;2022-11-20T05:58:33;94569.25;;;17.45;69.70
27210;BME280;14721;42.668;23.386;2022-11-20T06:01:34;94596.03;;;17.63;69.30
27210;BME280;14721;42.668;23.386;2022-11-20T06:04:02;94593.50;;;17.69;69.21
27210;BME280;14721;42.668;23.386;2022-11-20T06:06:28;94575.63;;;17.60;69.04
27210;BME280;14721;42.668;23.386;2022-11-20T06:08:54;94584.38;;;17.70;69.26
27210;BME280;14721;42.668;23.386;2022-11-20T06:11:20;94584.38;;;17.70;69.08
27210;BME280;14721;42.668;23.386;2022-11-20T06:13:47;94582.72;;;17.61;69.30
27210;BME280;14721;42.668;23.386;2022-11-20T06:16:15;94601.94;;;17.74;69.31
27210;BME280;14721;42.668;23.386;2022-11-20T06:18:43;94607.66;;;17.79;69.38
27210;BME280;14721;42.668;23.386;2022-11-20T06:21:15;94608.81;;;17.85;70.00
27210;BME280;14721;42.668;23.386;2022-11-20T06:23:42;94607.47;;;17.81;70.28
27210;BME280;14721;42.668;23.386;2022-11-20T06:26:13;94623.84;;;17.87;70.39
27210;BME280;14721;42.668;23.386;2022-11-20T06:28:41;94619.47;;;17.86;69.96
27210;BME280;14721;42.668;23.386;2022-11-20T06:31:13;94612.06;;;17.80;69.89
27210;BME280;14721;42.668;23.386;2022-11-20T06:33:39;94615.41;;;17.82;69.61
27210;BME280;14721;42.668;23.386;2022-11-20T06:36:06;94621.28;;;17.94;69.45
27210;BME280;14721;42.668;23.386;2022-11-20T06:38:33;94623.13;;;17.93;69.15
27210;BME280;14721;42.668;23.386;2022-11-20T06:40:59;94612.84;;;17.97;67.54
27210;BME280;14721;42.668;23.386;2022-11-20T06:43:28;94609.91;;;17.98;66.90
27210;BME280;14721;42.668;23.386;2022-11-20T06:45:55;94623.25;;;18.00;66.90
27210;BME280;14721;42.668;23.386;2022-11-20T06:48:22;94617.03;;;17.99;66.82
27210;BME280;14721;42.668;23.386;2022-11-20T06:50:49;94616.34;;;17.97;66.37
27210;BME280;14721;42.668;23.386;2022-11-20T06:53:15;94606.94;;;17.93;66.62
27210;BME280;14721;42.668;23.386;2022-11-20T06:55:43;94623.41;;;18.06;65.72
27210;BME280;14721;42.668;23.386;2022-11-20T06:58:09;94632.03;;;18.10;65.32
27210;BME280;14721;42.668;23.386;2022-11-20T07:00:36;94644.34;;;18.12;65.15
27210;BME280;14721;42.668;23.386;2022-11-20T07:03:06;94632.72;;;18.04;64.62
27210;BME280;14721;42.668;23.386;2022-11-20T07:05:33;94657.69;;;18.14;64.53
27210;BME280;14721;42.668;23.386;2022-11-20T07:07:59;94631.16;;;18.09;63.80
27210;BME280;14721;42.668;23.386;2022-11-20T07:10:25;94646.69;;;18.15;64.00
27210;BME280;14721;42.668;23.386;2022-11-20T07:12:55;94632.16;;;18.16;63.53
27210;BME280;14721;42.668;23.386;2022-11-20T07:15:22;94645.28;;;18.27;63.43
27210;BME280;14721;42.668;23.386;2022-11-20T07:17:48;94636.50;;;18.25;63.42
27210;BME280;14721;42.668;23.386;2022-11-20T07:20:14;94642.91;;;18.32;63.53
27210;BME280;14721;42.668;23.386;2022-11-20T07:22:41;94657.44;;;18.39;63.14
27210;BME280;14721;42.668;23.386;2022-11-20T07:25:07;94658.22;;;18.48;63.03
27210;BME280;14721;42.668;23.386;2022-11-20T07:27:35;94658.09;;;18.41;62.98
27210;BME280;14721;42.668;23.386;2022-11-20T07:30:02;94651.50;;;18.44;62.85
27210;BME280;14721;42.668;23.386;2022-11-20T07:32:28;94652.00;;;18.47;62.21
27210;BME280;14721;42.668;23.386;2022-11-20T07:34:54;94648.78;;;18.44;61.97
27210;BME280;14721;42.668;23.386;2022-11-20T07:37:19;94648.03;;;18.58;61.55
27210;BME280;14721;42.668;23.386;2022-11-20T07:39:45;94649.91;;;18.57;61.39
27210;BME280;14721;42.668;23.386;2022-11-20T07:42:10;94649.94;;;18.49;61.64
27210;BME280;14721;42.668;23.386;2022-11-20T07:44:38;94649.09;;;18.49;61.19
27210;BME280;14721;42.668;23.386;2022-11-20T07:47:04;94646.63;;;18.39;61.74
27210;BME280;14721;42.668;23.386;2022-11-20T07:49:29;94654.91;;;18.38;62.13
27210;BME280;14721;42.668;23.386;2022-11-20T07:51:55;94645.25;;;18.35;62.06
27210;BME280;14721;42.668;23.386;2022-11-20T07:54:21;94653.53;;;18.42;62.38
27210;BME280;14721;42.668;23.386;2022-11-20T07:56:48;94663.34;;;18.43;62.62
27210;BME280;14721;42.668;23.386;2022-11-20T07:59:14;94651.03;;;18.32;62.99
27210;BME280;14721;42.668;23.386;2022-11-20T08:01:41;94674.63;;;18.46;62.70
27210;BME280;14721;42.668;23.386;2022-11-20T08:04:06;94667.72;;;18.44;62.47
27210;BME280;14721;42.668;23.386;2022-11-20T08:06:32;94650.56;;;18.59;61.86
27210;BME280;14721;42.668;23.386;2022-11-20T08:08:58;94657.28;;;18.63;61.93
27210;BME280;14721;42.668;23.386;2022-11-20T08:11:23;94669.34;;;18.61;62.10
27210;BME280;14721;42.668;23.386;2022-11-20T08:14:10;94659.97;;;18.72;62.04
27210;BME280;14721;42.668;23.386;2022-11-20T08:16:40;94643.97;;;18.85;61.26
27210;BME280;14721;42.668;23.386;2022-11-20T08:19:06;94644.28;;;18.90;60.74
27210;BME280;14721;42.668;23.386;2022-11-20T08:21:32;94640.00;;;18.95;60.29
27210;BME280;14721;42.668;23.386;2022-11-20T08:23:58;94643.19;;;18.99;60.40
27210;BME280;14721;42.668;23.386;2022-11-20T08:26:24;94635.53;;;19.02;59.84
27210;BME280;14721;42.668;23.386;2022-11-20T08:28:54;94628.28;;;19.03;59.48
27210;BME280;14721;42.668;23.386;2022-11-20T08:31:20;94639.09;;;19.03;59.09
27210;BME280;14721;42.668;23.386;2022-11-20T08:33:46;94643.47;;;19.04;58.92
27210;BME280;14721;42.668;23.386;2022-11-20T08:36:12;94640.94;;;19.02;59.29
27210;BME280;14721;42.668;23.386;2022-11-20T08:38:37;94632.38;;;18.99;58.76
27210;BME280;14721;42.668;23.386;2022-11-20T08:41:04;94641.03;;;18.94;58.78
27210;BME280;14721;42.668;23.386;2022-11-20T08:43:50;94638.56;;;18.85;58.87
27210;BME280;14721;42.668;23.386;2022-11-20T08:46:16;94636.97;;;18.90;58.69
27210;BME280;14721;42.668;23.386;2022-11-20T08:48:43;94650.47;;;18.98;58.78
27210;BME280;14721;42.668;23.386;2022-11-20T08:51:10;94658.91;;;19.03;59.14
27210;BME280;14721;42.668;23.386;2022-11-20T08:53:36;94681.38;;;19.04;59.44
27210;BME280;14721;42.668;23.386;2022-11-20T08:56:01;94695.06;;;19.10;60.16
27210;BME280;14721;42.668;23.386;2022-11-20T08:58:27;94693.97;;;18.97;60.87
27210;BME280;14721;42.668;23.386;2022-11-20T09:00:53;94699.31;;;18.82;61.85
27210;BME280;14721;42.668;23.386;2022-11-20T09:03:18;94684.84;;;18.67;63.15
27210;BME280;14721;42.668;23.386;2022-11-20T09:05:44;94696.03;;;18.64;63.39
27210;BME280;14721;42.668;23.386;2022-11-20T09:08:09;94700.44;;;18.57;63.49
27210;BME280;14721;42.668;23.386;2022-11-20T09:10:35;94691.63;;;18.63;63.43
27210;BME280;14721;42.668;23.386;2022-11-20T09:13:02;94685.69;;;18.67;62.94
27210;BME280;14721;42.668;23.386;2022-11-20T09:15:27;94697.66;;;18.73;64.33
27210;BME280;14721;42.668;23.386;2022-11-20T09:17:58;94704.88;;;18.50;65.36
27210;BME280;14721;42.668;23.386;2022-11-20T09:20:26;94715.28;;;18.22;67.81
27210;BME280;14721;42.668;23.386;2022-11-20T09:22:52;94686.97;;;17.94;70.03
27210;BME280;14721;42.668;23.386;2022-11-20T09:25:18;94686.22;;;17.62;72.99
27210;BME280;14721;42.668;23.386;2022-11-20T09:27:44;94697.00;;;17.38;72.54
27210;BME280;14721;42.668;23.386;2022-11-20T09:30:12;94701.06;;;17.26;74.15
27210;BME280;14721;42.668;23.386;2022-11-20T09:32:41;94698.88;;;17.21;76.33
27210;BME280;14721;42.668;23.386;2022-11-20T09:35:08;94697.69;;;16.92;74.71
27210;BME280;14721;42.668;23.386;2022-11-20T09:37:34;94679.25;;;16.63;75.41
27210;BME280;14721;42.668;23.386;2022-11-20T09:40:00;94684.13;;;16.59;76.42
27210;BME280;14721;42.668;23.386;2022-11-20T09:48:21;94667.84;;;16.35;78.65
27210;BME280;14721;42.668;23.386;2022-11-20T09:51:00;94645.59;;;16.25;79.35
27210;BME280;14721;42.668;23.386;2022-11-20T09:56:28;94668.38;;;16.39;78.85
27210;BME280;14721;42.668;23.386;2022-11-20T09:58:55;94650.97;;;16.25;80.43
27210;BME280;14721;42.668;23.386;2022-11-20T10:01:34;94677.34;;;16.06;82.44
27210;BME280;14721;42.668;23.386;2022-11-20T10:04:13;94671.38;;;15.94;82.39
27210;BME280;14721;42.668;23.386;2022-11-20T10:09:22;94645.03;;;16.14;80.55
27210;BME280;14721;42.668;23.386;2022-11-20T10:23:53;94601.19;;;16.61;80.38
27210;BME280;14721;42.668;23.386;2022-11-20T10:29:18;94605.75;;;16.69;81.70
27210;BME280;14721;42.668;23.386;2022-11-20T10:31:56;94582.66;;;16.74;81.20
27210;BME280;14721;42.668;23.386;2022-11-20T10:37:25;94618.38;;;16.84;80.50
27210;BME280;14721;42.668;23.386;2022-11-20T10:40:05;94623.31;;;16.81;82.14
27210;BME280;14721;42.668;23.386;2022-11-20T10:42:47;94603.53;;;16.56;84.50
27210;BME280;14721;42.668;23.386;2022-11-20T10:50:35;94627.16;;;16.78;85.24
27210;BME280;14721;42.668;23.386;2022-11-20T10:53:16;94627.84;;;16.88;84.80
27210;BME280;14721;42.668;23.386;2022-11-20T10:56:08;94613.66;;;16.62;84.96
27210;BME280;14721;42.668;23.386;2022-11-20T10:58:45;94628.69;;;16.73;83.94
27210;BME280;14721;42.668;23.386;2022-11-20T11:01:19;94664.56;;;16.49;85.24
27210;BME280;14721;42.668;23.386;2022-11-20T11:03:48;94653.41;;;16.44;86.19
27210;BME280;14721;42.668;23.386;2022-11-20T11:09:22;94634.16;;;16.31;86.45
27210;BME280;14721;42.668;23.386;2022-11-20T11:11:53;94671.38;;;16.28;87.58
27210;BME280;14721;42.668;23.386;2022-11-20T11:14:18;94691.09;;;16.28;88.76
27210;BME280;14721;42.668;23.386;2022-11-20T11:16:57;94696.56;;;16.11;90.92
27210;BME280;14721;42.668;23.386;2022-11-20T11:19:24;94712.13;;;15.91;93.00
27210;BME280;14721;42.668;23.386;2022-11-20T11:21:56;94718.59;;;15.73;95.66
27210;BME280;14721;42.668;23.386;2022-11-20T11:24:24;94702.81;;;15.35;94.09
27210;BME280;14721;42.668;23.386;2022-11-20T11:26:57;94704.50;;;14.75;92.88
27210;BME280;14721;42.668;23.386;2022-11-20T11:29:24;94693.72;;;14.40;95.01
27210;BME280;14721;42.668;23.386;2022-11-20T11:32:03;94675.81;;;14.04;96.73
27210;BME280;14721;42.668;23.386;2022-11-20T11:34:29;94694.81;;;13.93;96.00
27210;BME280;14721;42.668;23.386;2022-11-20T11:36:59;94707.50;;;13.73;96.43
27210;BME280;14721;42.668;23.386;2022-11-20T11:39:27;94704.53;;;13.67;98.08
27210;BME280;14721;42.668;23.386;2022-11-20T11:41:55;94713.44;;;13.67;98.96
27210;BME280;14721;42.668;23.386;2022-11-20T11:44:28;94709.06;;;13.66;97.98
27210;BME280;14721;42.668;23.386;2022-11-20T11:47:25;94710.78;;;13.58;98.58
27210;BME280;14721;42.668;23.386;2022-11-20T11:50:16;94706.59;;;13.46;98.79
27210;BME280;14721;42.668;23.386;2022-11-20T11:58:41;94714.28;;;13.12;99.61
27210;BME280;14721;42.668;23.386;2022-11-20T12:03:52;94692.13;;;13.00;100.00
27210;BME280;14721;42.668;23.386;2022-11-20T12:06:20;94649.94;;;12.93;100.00
27210;BME280;14721;42.668;23.386;2022-11-20T12:08:54;94675.03;;;13.11;100.00
27210;BME280;14721;42.668;23.386;2022-11-20T12:16:38;94686.63;;;13.02;100.00
27210;BME280;14721;42.668;23.386;2022-11-20T12:19:10;94689.97;;;13.23;100.00
27210;BME280;14721;42.668;23.386;2022-11-20T12:22:28;94662.66;;;13.00;100.00
27210;BME280;14721;42.668;23.386;2022-11-20T12:40:27;94680.13;;;12.85;98.40
27210;BME280;14721;42.668;23.386;2022-11-20T12:43:03;94636.69;;;12.82;100.00
27210;BME280;14721;42.668;23.386;2022-11-20T13:05:51;94617.47;;;13.05;96.66
27210;BME280;14721;42.668;23.386;2022-11-20T13:08:27;94607.63;;;13.33;95.43
27210;BME280;14721;42.668;23.386;2022-11-20T13:14:04;94574.53;;;13.42;94.82
27210;BME280;14721;42.668;23.386;2022-11-20T13:16:54;94538.06;;;13.76;90.05
27210;BME280;14721;42.668;23.386;2022-11-20T13:19:24;94548.91;;;14.54;84.34
27210;BME280;14721;42.668;23.386;2022-11-20T13:21:50;94589.69;;;14.93;82.35
27210;BME280;14721;42.668;23.386;2022-11-20T13:26:45;94630.84;;;14.68;88.63
27210;BME280;14721;42.668;23.386;2022-11-20T13:29:18;94612.16;;;14.49;87.73
27210;BME280;14721;42.668;23.386;2022-11-20T13:31:46;94578.91;;;14.32;88.15
27210;BME280;14721;42.668;23.386;2022-11-20T13:34:22;94613.13;;;14.13;91.03
27210;BME280;14721;42.668;23.386;2022-11-20T13:36:50;94676.66;;;14.04;93.28
27210;BME280;14721;42.668;23.386;2022-11-20T13:39:27;94665.91;;;14.04;94.11
27210;BME280;14721;42.668;23.386;2022-11-20T13:42:01;94614.47;;;13.99;90.16
27210;BME280;14721;42.668;23.386;2022-11-20T13:44:34;94556.72;;;13.95;90.23
27210;BME280;14721;42.668;23.386;2022-11-20T13:47:03;94637.75;;;14.08;90.52
27210;BME280;14721;42.668;23.386;2022-11-20T13:49:39;94637.91;;;14.07;91.49
27210;BME280;14721;42.668;23.386;2022-11-20T14:00:21;94632.31;;;14.18;92.13
27210;BME280;14721;42.668;23.386;2022-11-20T14:05:36;94643.56;;;14.04;92.85
27210;BME280;14721;42.668;23.386;2022-11-20T14:08:06;94631.91;;;14.13;94.18
27210;BME280;14721;42.668;23.386;2022-11-20T14:10:34;94640.72;;;14.32;94.43
27210;BME280;14721;42.668;23.386;2022-11-20T14:13:15;94629.00;;;14.33;93.72
27210;BME280;14721;42.668;23.386;2022-11-20T14:15:42;94633.34;;;14.52;93.67
27210;BME280;14721;42.668;23.386;2022-11-20T14:18:18;94612.88;;;14.51;93.75
27210;BME280;14721;42.668;23.386;2022-11-20T14:20:44;94621.16;;;14.40;93.42
27210;BME280;14721;42.668;23.386;2022-11-20T14:23:10;94627.69;;;14.37;93.29
27210;BME280;14721;42.668;23.386;2022-11-20T14:25:37;94619.25;;;14.05;94.14
27210;BME280;14721;42.668;23.386;2022-11-20T14:28:11;94624.91;;;14.02;96.18
27210;BME280;14721;42.668;23.386;2022-11-20T14:30:47;94623.78;;;14.05;97.49
27210;BME280;14721;42.668;23.386;2022-11-20T14:33:13;94630.28;;;14.02;97.45
27210;BME280;14721;42.668;23.386;2022-11-20T14:38:13;94639.00;;;14.14;97.97
27210;BME280;14721;42.668;23.386;2022-11-20T14:40:40;94648.72;;;14.24;98.62
27210;BME280;14721;42.668;23.386;2022-11-20T14:43:27;94619.44;;;14.21;97.85
27210;BME280;14721;42.668;23.386;2022-11-20T14:46:05;94636.06;;;14.07;96.49
27210;BME280;14721;42.668;23.386;2022-11-20T14:48:45;94647.44;;;14.19;95.79
27210;BME280;14721;42.668;23.386;2022-11-20T14:51:23;94651.88;;;14.10;96.39
27210;BME280;14721;42.668;23.386;2022-11-20T14:53:51;94651.03;;;14.10;96.20
27210;BME280;14721;42.668;23.386;2022-11-20T14:56:22;94635.66;;;14.02;96.81